Time;durP1;ratioP1;P1;durP2;ratioP2;P2;SDS_P1;SDS_P2;PMS_P1;PMS_P2;Temp;Humidity;BMP_temperature;BMP_pressure;BME280_temperature;BME280_humidity;BME280_pressure;Samples;Min_cycle;Max_cycle;Signal;HPM_P1;HPM_P2
2021/11/09 00:00:33;;;;;;;13.93;7.95;;;;;;;9.32;85.25;99716.23;1712844;83;21543;-83
2021/11/09 00:03:14;;;;;;;15.18;8.95;;;;;;;9.29;85.38;99710.64;1796075;79;21494;-83
2021/11/09 00:08:19;;;;;;;18.80;8.85;;;;;;;9.19;85.22;99709.42;1787781;80;21007;-84
2021/11/09 00:10:43;;;;;;;15.05;8.75;;;;;;;9.14;84.95;99715.52;1786978;80;21043;-82
2021/11/09 00:13:10;;;;;;;15.30;8.60;;;;;;;9.11;85.48;99714.69;1787397;80;21004;-84
2021/11/09 00:15:36;;;;;;;14.78;8.65;;;;;;;9.06;85.46;99711.29;1787189;80;21506;-83
2021/11/09 00:18:05;;;;;;;14.98;7.53;;;;;;;9.03;86.19;99709.59;1787346;80;21023;-83
2021/11/09 00:20:34;;;;;;;17.90;8.78;;;;;;;9.02;85.92;99713.48;1788225;80;21043;-83
2021/11/09 00:23:02;;;;;;;17.40;8.73;;;;;;;8.99;85.42;99711.76;1788365;80;20972;-83
2021/11/09 00:25:29;;;;;;;17.87;9.43;;;;;;;8.96;85.46;99710.06;1788352;80;20960;-83
2021/11/09 00:27:56;;;;;;;16.65;8.53;;;;;;;8.95;85.21;99718.73;1788136;80;21514;-84
2021/11/09 00:30:26;;;;;;;16.77;8.60;;;;;;;8.93;85.59;99720.48;1788193;80;20968;-82
2021/11/09 00:32:54;;;;;;;14.20;7.75;;;;;;;8.95;86.66;99722.62;1788216;80;21023;-84
2021/11/09 00:35:25;;;;;;;16.48;8.95;;;;;;;8.99;85.89;99713.50;1788043;80;21606;-84
2021/11/09 00:37:53;;;;;;;17.15;7.60;;;;;;;9.00;86.23;99716.09;1788168;80;20980;-82
2021/11/09 00:40:24;;;;;;;15.40;8.78;;;;;;;9.03;86.26;99711.30;1796058;80;21034;-83
2021/11/09 00:42:50;;;;;;;17.07;8.45;;;;;;;9.06;86.24;99713.88;1801721;79;21511;-83
2021/11/09 00:45:17;;;;;;;17.37;9.20;;;;;;;9.09;86.62;99707.35;1803025;79;21085;-82
2021/11/09 00:47:44;;;;;;;19.12;9.23;;;;;;;9.11;86.36;99703.89;1819480;79;21009;-82
2021/11/09 00:50:14;;;;;;;14.33;8.03;;;;;;;9.13;86.57;99713.81;1819885;79;21071;-83
2021/11/09 00:52:41;;;;;;;14.73;8.25;;;;;;;9.15;86.58;99712.48;1797620;79;21062;-83
2021/11/09 00:55:09;;;;;;;15.90;7.78;;;;;;;9.18;86.44;99712.47;1797180;79;21007;-82
2021/11/09 00:57:36;;;;;;;13.90;8.13;;;;;;;9.21;86.42;99712.45;1810477;79;20988;-84
2021/11/09 01:00:06;;;;;;;16.65;9.15;;;;;;;9.21;85.92;99707.27;1819336;79;20979;-82
2021/11/09 01:02:34;;;;;;;15.83;8.53;;;;;;;9.19;86.00;99720.69;1825000;78;21047;-83
2021/11/09 01:05:01;;;;;;;14.23;8.48;;;;;;;9.18;85.53;99725.44;1820162;79;21042;-82
2021/11/09 01:07:27;;;;;;;14.85;8.98;;;;;;;9.13;85.33;99725.49;1817651;78;20975;-82
2021/11/09 01:09:54;;;;;;;15.68;8.88;;;;;;;9.06;85.34;99726.41;1814225;79;21479;-82
2021/11/09 01:12:20;;;;;;;16.17;9.23;;;;;;;9.05;85.73;99723.81;1839317;77;20998;-82
2021/11/09 01:14:47;;;;;;;13.38;7.75;;;;;;;9.00;84.85;99722.57;1822210;78;20987;-82
2021/11/09 01:17:13;;;;;;;15.80;8.75;;;;;;;8.95;85.76;99721.73;1845530;77;20974;-82
2021/11/09 01:19:40;;;;;;;16.97;8.95;;;;;;;8.88;85.57;99718.34;1825404;78;21022;-83
2021/11/09 01:22:07;;;;;;;16.27;7.85;;;;;;;8.83;86.28;99720.55;1841192;77;20965;-83
2021/11/09 01:24:35;;;;;;;15.85;7.33;;;;;;;8.81;86.39;99715.37;1838819;78;20991;-84
2021/11/09 01:27:01;;;;;;;14.95;8.08;;;;;;;8.80;85.70;99723.19;1843630;77;20950;-82
2021/11/09 01:29:28;;;;;;;14.53;7.80;;;;;;;8.76;85.79;99715.86;1839058;78;21000;-82
2021/11/09 01:31:56;;;;;;;17.32;7.60;;;;;;;8.75;86.49;99716.72;1840618;78;21034;-83
2021/11/09 01:34:23;;;;;;;14.60;6.70;;;;;;;8.74;86.04;99722.79;1800597;77;21015;-82
2021/11/09 01:36:50;;;;;;;15.65;7.62;;;;;;;8.73;86.92;99721.94;1821894;78;21033;-82
2021/11/09 01:39:17;;;;;;;15.18;7.95;;;;;;;8.74;86.93;99715.86;1822836;77;21061;-83
2021/11/09 01:41:44;;;;;;;13.58;7.65;;;;;;;8.72;86.37;99714.16;1822612;77;21050;-84
2021/11/09 01:44:10;;;;;;;15.90;8.05;;;;;;;8.74;86.19;99724.08;1803086;79;21014;-83
2021/11/09 01:46:37;;;;;;;18.07;8.38;;;;;;;8.74;86.35;99727.53;1801081;79;21027;-82
2021/11/09 01:49:06;;;;;;;16.97;9.35;;;;;;;8.78;86.37;99731.41;1836123;77;21204;-82
2021/11/09 01:51:33;;;;;;;17.32;9.08;;;;;;;8.80;86.14;99725.33;1824285;77;21046;-82
2021/11/09 01:54:01;;;;;;;18.05;9.63;;;;;;;8.80;86.09;99725.33;1843007;78;20970;-83
2021/11/09 01:56:31;;;;;;;16.45;9.23;;;;;;;8.82;85.94;99726.63;1842572;78;21035;-84
2021/11/09 01:58:59;;;;;;;20.65;9.00;;;;;;;8.84;85.93;99730.91;1816510;77;21007;-82
2021/11/09 02:01:27;;;;;;;19.95;8.85;;;;;;;8.87;85.88;99733.50;1839527;78;21031;-82
2021/11/09 02:03:59;;;;;;;19.80;10.65;;;;;;;8.92;85.64;99725.67;1839298;77;21483;-84
2021/11/09 02:06:27;;;;;;;24.45;11.08;;;;;;;8.92;85.54;99720.04;1818264;78;21017;-83
2021/11/09 02:09:05;;;;;;;22.00;11.35;;;;;;;8.92;85.58;99723.93;1841361;78;20971;-82
2021/11/09 02:11:31;;;;;;;20.48;10.60;;;;;;;8.93;85.67;99726.96;1830444;77;21029;-82
2021/11/09 02:13:58;;;;;;;19.62;10.90;;;;;;;8.95;85.30;99726.52;1842222;77;21026;-83
2021/11/09 02:16:25;;;;;;;22.32;12.10;;;;;;;8.91;85.26;99717.04;1836490;77;21026;-82
2021/11/09 02:18:51;;;;;;;22.75;12.18;;;;;;;8.85;85.49;99729.17;1839269;78;21073;-82
2021/11/09 02:21:19;;;;;;;23.25;10.85;;;;;;;8.82;85.62;99726.63;1771498;80;21038;-87
2021/11/09 02:23:47;;;;;;;27.60;11.60;;;;;;;8.80;86.05;99726.63;1791991;80;21546;-83
2021/11/09 02:26:18;;;;;;;22.90;12.13;;;;;;;8.76;84.72;99728.82;1778441;80;21006;-83
2021/11/09 02:28:48;;;;;;;22.60;10.40;;;;;;;8.69;85.68;99728.43;1761639;80;21032;-83
2021/11/09 02:31:15;;;;;;;19.80;10.65;;;;;;;8.62;85.60;99731.95;1763466;80;21034;-82
2021/11/09 02:33:43;;;;;;;20.52;9.98;;;;;;;8.57;84.81;99726.78;1780379;80;21026;-84
2021/11/09 02:36:09;;;;;;;18.92;10.00;;;;;;;8.52;86.27;99728.56;1774839;80;21026;-82
2021/11/09 02:38:36;;;;;;;19.60;10.65;;;;;;;8.51;86.19;99723.80;1776462;80;21073;-82
2021/11/09 02:41:04;;;;;;;20.48;10.68;;;;;;;8.50;86.38;99720.80;1792089;80;20980;-82
2021/11/09 02:43:32;;;;;;;19.75;10.55;;;;;;;8.48;86.39;99722.98;1791600;79;21078;-83
2021/11/09 02:49:06;;;;;;;21.27;10.05;;;;;;;8.44;86.51;99728.61;1809109;79;21514;-82
2021/11/09 02:51:39;;;;;;;23.75;10.32;;;;;;;8.46;86.21;99724.28;1814875;78;21058;-82
2021/11/09 02:54:24;;;;;;;19.73;10.13;;;;;;;8.46;86.76;99728.16;1822190;78;21007;-83
2021/11/09 02:56:59;;;;;;;21.05;10.50;;;;;;;8.49;86.75;99737.20;1832070;78;21100;-83
2021/11/09 03:02:19;;;;;;;22.02;10.35;;;;;;;8.54;87.04;99740.63;1813322;78;21008;-82
2021/11/09 03:05:15;;;;;;;20.02;9.00;;;;;;;8.55;86.95;99744.95;1812606;79;21019;-83
2021/11/09 03:07:41;;;;;;;22.98;10.10;;;;;;;8.58;86.84;99745.37;1838399;77;21026;-82
2021/11/09 03:10:30;;;;;;;25.40;9.18;;;;;;;8.60;86.45;99743.63;1810782;78;21003;-82
2021/11/09 03:12:51;;;;;;;24.25;10.78;;;;;;;8.60;86.49;99751.84;1812424;78;21003;-82
2021/11/09 03:15:23;;;;;;;23.05;10.85;;;;;;;8.61;86.59;99738.84;1837448;77;21018;-82
2021/11/09 03:18:00;;;;;;;20.57;10.88;;;;;;;8.65;86.78;99748.32;1851643;76;20983;-82
2021/11/09 03:20:42;;;;;;;24.05;11.03;;;;;;;8.70;86.85;99748.31;1835463;78;20979;-84
2021/11/09 03:45:23;;;;;;;23.77;11.53;;;;;;;8.80;86.03;99759.48;1794206;79;21042;-83
2021/11/09 03:47:44;;;;;;;24.10;11.97;;;;;;;8.74;85.66;99764.27;1792667;79;21343;-83
2021/11/09 03:50:10;;;;;;;24.23;12.70;;;;;;;8.73;86.25;99767.72;1802363;79;21020;-83
2021/11/09 03:52:44;;;;;;;24.82;12.53;;;;;;;8.72;86.93;99769.90;1822172;79;20980;-82
2021/11/09 03:55:07;;;;;;;24.98;11.97;;;;;;;8.72;87.22;99772.49;1835087;77;20979;-82
2021/11/09 03:57:40;;;;;;;19.35;11.35;;;;;;;8.69;87.10;99769.91;1801804;79;21050;-83
2021/11/09 04:00:15;;;;;;;28.07;12.37;;;;;;;8.65;85.87;99766.47;1810446;79;20992;-83
2021/11/09 04:05:10;;;;;;;25.92;12.37;;;;;;;8.63;86.83;99769.50;1822581;79;21031;-83
2021/11/09 04:10:18;;;;;;;25.08;12.05;;;;;;;8.69;87.02;99778.53;1843170;77;20991;-82
2021/11/09 04:15:35;;;;;;;27.52;12.82;;;;;;;8.68;86.30;99798.02;1841374;77;21037;-81
2021/11/09 04:18:15;;;;;;;27.50;12.07;;;;;;;8.67;86.22;99801.02;1826695;78;21046;-82
2021/11/09 04:28:59;;;;;;;26.55;12.43;;;;;;;8.81;87.09;99817.78;1817195;79;21040;-83
2021/11/09 04:31:35;;;;;;;26.27;12.75;;;;;;;8.84;86.77;99815.19;1817363;79;21027;-83
2021/11/09 05:08:31;;;;;;;30.02;12.82;;;;;;;8.45;85.43;99867.66;1840401;78;20975;-82
2021/11/09 05:10:58;;;;;;;26.85;13.28;;;;;;;8.39;85.74;99865.05;1826594;78;21042;-82
2021/11/09 05:13:25;;;;;;;28.20;13.13;;;;;;;8.36;86.17;99876.74;1839260;78;20956;-83
2021/11/09 05:15:53;;;;;;;28.12;13.32;;;;;;;8.31;86.08;99888.84;1822404;78;21038;-83
2021/11/09 05:18:21;;;;;;;23.90;11.90;;;;;;;8.26;86.53;99891.89;1830337;78;21033;-82
2021/11/09 05:20:47;;;;;;;26.25;12.78;;;;;;;8.27;86.80;99901.37;1824253;78;21018;-83
2021/11/09 05:23:14;;;;;;;24.92;12.30;;;;;;;8.31;86.98;99915.59;1836940;78;20998;-83
2021/11/09 05:25:41;;;;;;;28.40;13.65;;;;;;;8.34;86.77;99919.49;1828456;77;21001;-82
2021/11/09 05:28:09;;;;;;;23.80;11.03;;;;;;;8.37;86.60;99918.61;1841062;78;21065;-82
2021/11/09 05:30:41;;;;;;;24.82;12.13;;;;;;;8.36;86.67;99928.12;1805136;78;21557;-82
2021/11/09 05:33:08;;;;;;;23.42;10.60;;;;;;;8.34;86.59;99934.19;1817996;79;20956;-83
2021/11/09 05:35:35;;;;;;;23.80;10.45;;;;;;;8.32;86.58;99941.09;1837537;77;21010;-83
2021/11/09 05:38:04;;;;;;;18.57;9.38;;;;;;;8.29;86.53;99956.64;1820675;78;20971;-83
2021/11/09 05:40:37;;;;;;;23.47;10.95;;;;;;;8.26;86.60;99953.63;1843662;78;21315;-82
2021/11/09 05:43:04;;;;;;;40.90;19.25;;;;;;;8.26;86.67;99963.13;1840689;78;20939;-83
2021/11/09 05:45:30;;;;;;;23.87;11.08;;;;;;;8.26;86.70;99968.31;1818432;78;20983;-82
2021/11/09 05:47:57;;;;;;;34.45;17.60;;;;;;;8.25;86.61;99963.55;1799622;79;21031;-84
2021/11/09 05:50:27;;;;;;;30.45;14.23;;;;;;;8.27;86.21;99979.09;1816993;79;21097;-82
2021/11/09 05:52:54;;;;;;;26.35;12.40;;;;;;;8.28;86.17;99975.66;1841780;77;20987;-82
2021/11/09 05:55:20;;;;;;;20.30;9.65;;;;;;;8.34;86.47;99976.94;1843375;78;21010;-83
2021/11/09 05:57:47;;;;;;;27.73;10.25;;;;;;;8.38;86.40;99975.20;1812454;78;21495;-82
2021/11/09 06:00:14;;;;;;;16.95;9.23;;;;;;;8.41;86.43;99989.02;1818300;78;21383;-82
2021/11/09 06:02:42;;;;;;;17.02;8.75;;;;;;;8.44;85.70;99995.95;1773914;80;21034;-83
2021/11/09 06:05:09;;;;;;;14.87;8.35;;;;;;;8.47;85.17;100021.41;1774865;80;21046;-84
2021/11/09 06:07:35;;;;;;;16.97;9.33;;;;;;;8.43;84.87;100024.02;1788822;80;21034;-84
2021/11/09 06:10:03;;;;;;;16.32;10.53;;;;;;;8.41;84.64;100028.30;1793418;80;20999;-82
2021/11/09 06:12:30;;;;;;;12.50;7.37;;;;;;;8.37;84.98;100035.21;1787196;80;21038;-82
2021/11/09 06:14:57;;;;;;;12.95;6.62;;;;;;;8.35;83.98;100046.01;1768071;80;21058;-82
2021/11/09 06:17:23;;;;;;;8.78;4.92;;;;;;;8.29;83.97;100051.20;1786943;80;21007;-83
2021/11/09 06:19:50;;;;;;;14.15;5.62;;;;;;;8.26;83.67;100055.10;1762128;80;21060;-82
2021/11/09 06:22:17;;;;;;;9.28;5.05;;;;;;;8.20;83.46;100065.03;1781272;79;21014;-82
2021/11/09 06:24:44;;;;;;;10.03;4.85;;;;;;;8.14;83.45;100065.88;1812790;78;20960;-82
2021/11/09 06:27:10;;;;;;;9.90;4.08;;;;;;;8.10;83.62;100077.55;1807566;79;21549;-83
2021/11/09 06:29:37;;;;;;;8.55;4.33;;;;;;;8.01;82.42;100096.95;1815453;78;21022;-82
2021/11/09 06:32:04;;;;;;;8.75;4.33;;;;;;;7.94;83.02;100102.13;1811758;79;20948;-82
2021/11/09 06:34:31;;;;;;;8.80;3.95;;;;;;;7.88;82.80;100115.50;1835938;77;21510;-83
2021/11/09 06:36:57;;;;;;;6.55;3.15;;;;;;;7.73;82.40;100119.75;1840439;78;20951;-83
2021/11/09 06:39:25;;;;;;;7.35;2.85;;;;;;;7.67;82.14;100124.06;1830722;77;21053;-82
2021/11/09 06:41:51;;;;;;;4.75;2.12;;;;;;;7.57;82.33;100117.55;1824096;76;21076;-83
2021/11/09 06:44:19;;;;;;;3.98;2.17;;;;;;;7.51;81.42;100117.96;1845715;76;20999;-83
2021/11/09 06:46:46;;;;;;;4.60;2.00;;;;;;;7.43;80.73;100116.64;1835891;76;21700;-83
2021/11/09 06:49:13;;;;;;;6.70;2.67;;;;;;;7.33;80.35;100111.85;1834143;77;21513;-81
2021/11/09 06:51:39;;;;;;;5.50;2.22;;;;;;;7.34;81.29;100098.08;1831329;77;21022;-82
2021/11/09 06:54:06;;;;;;;4.17;2.22;;;;;;;7.25;80.74;100107.08;1803988;78;20994;-83
2021/11/09 06:56:33;;;;;;;6.10;2.98;;;;;;;7.24;80.72;100113.53;1814490;77;20956;-81
2021/11/09 06:59:00;;;;;;;7.17;2.75;;;;;;;7.21;80.38;100111.80;1798606;79;21003;-82
2021/11/09 07:01:27;;;;;;;3.33;2.27;;;;;;;7.15;78.99;100119.53;1817031;78;20968;-83
2021/11/09 07:03:54;;;;;;;4.22;2.42;;;;;;;7.12;79.21;100119.50;1799822;79;21034;-82
2021/11/09 07:06:24;;;;;;;3.98;2.42;;;;;;;7.09;80.08;100122.94;1808528;78;20991;-82
2021/11/09 07:08:51;;;;;;;3.95;2.42;;;;;;;7.09;80.27;100122.09;1774426;79;20988;-82
2021/11/09 07:11:17;;;;;;;7.12;3.75;;;;;;;7.07;80.39;100128.53;1830398;77;21006;-81
2021/11/09 07:13:45;;;;;;;15.03;7.47;;;;;;;7.06;79.91;100130.70;1833233;77;21005;-82
2021/11/09 07:16:11;;;;;;;5.75;2.20;;;;;;;7.01;80.26;100132.37;1789975;76;21442;-86
2021/11/09 07:18:38;;;;;;;4.33;2.00;;;;;;;6.96;80.09;100144.00;1767045;80;21102;-89
2021/11/09 07:21:05;;;;;;;2.15;1.40;;;;;;;6.91;79.87;100150.84;1764793;80;21105;-83
2021/11/09 07:23:32;;;;;;;2.58;1.60;;;;;;;6.86;79.81;100149.94;1700869;84;21091;-82
2021/11/09 07:25:58;;;;;;;3.87;1.80;;;;;;;6.83;79.92;100155.10;1720365;82;21571;-80
2021/11/09 07:28:24;;;;;;;3.05;1.50;;;;;;;6.86;80.31;100152.95;1731505;82;21005;-80
2021/11/09 07:31:03;;;;;;;3.80;1.72;;;;;;;6.85;80.35;100160.29;1724422;82;20937;-80
2021/11/09 07:33:29;;;;;;;5.35;2.02;;;;;;;6.86;80.43;100169.32;1696194;83;21051;-80
2021/11/09 07:35:57;;;;;;;5.05;2.50;;;;;;;6.85;80.90;100185.70;1744011;82;21027;-83
2021/11/09 07:38:23;;;;;;;5.75;3.00;;;;;;;6.86;80.75;100176.22;1739928;82;21047;-81
2021/11/09 07:40:50;;;;;;;5.47;2.72;;;;;;;6.90;81.30;100177.57;1753629;81;21007;-81
2021/11/09 07:43:18;;;;;;;6.78;3.08;;;;;;;6.96;81.98;100176.31;1742124;82;21012;-82
2021/11/09 07:45:46;;;;;;;5.70;3.12;;;;;;;7.01;81.75;100174.19;1745415;82;20991;-81
2021/11/09 07:48:13;;;;;;;5.78;2.45;;;;;;;7.04;81.47;100169.88;1742800;80;21320;-82
2021/11/09 07:50:41;;;;;;;7.25;3.10;;;;;;;7.09;81.09;100190.61;1743555;81;21078;-83
2021/11/09 07:53:13;;;;;;;7.12;3.45;;;;;;;7.11;80.70;100194.93;1741958;81;20976;-83
2021/11/09 07:55:45;;;;;;;6.92;3.12;;;;;;;7.14;81.01;100196.66;1751791;81;21031;-84
2021/11/09 07:58:11;;;;;;;6.60;2.80;;;;;;;7.12;80.87;100208.31;1736013;82;21165;-80
2021/11/09 08:00:39;;;;;;;10.08;2.70;;;;;;;7.05;81.31;100206.53;1739054;82;21031;-84
2021/11/09 08:03:08;;;;;;;6.50;2.80;;;;;;;7.00;81.19;100215.95;1754270;82;21346;-81
2021/11/09 08:05:40;;;;;;;4.72;2.50;;;;;;;6.94;81.43;100223.27;1745365;81;21074;-81
2021/11/09 08:08:18;;;;;;;5.58;2.17;;;;;;;6.89;81.16;100227.96;1753527;80;20960;-86
2021/11/09 08:10:41;;;;;;;3.50;1.82;;;;;;;6.78;81.04;100217.52;1750271;82;21029;-84
2021/11/09 08:13:07;;;;;;;4.55;2.22;;;;;;;6.70;81.09;100204.95;1756876;81;21042;-82
2021/11/09 08:15:34;;;;;;;12.20;6.50;;;;;;;6.62;81.40;100187.23;1753352;80;21097;-84
2021/11/09 08:18:00;;;;;;;4.87;2.50;;;;;;;6.62;81.89;100167.42;1716698;78;21090;-90
2021/11/09 08:20:27;;;;;;;6.47;2.25;;;;;;;6.63;81.76;100179.50;1691657;83;21058;-89
2021/11/09 08:22:53;;;;;;;5.12;1.65;;;;;;;6.64;81.78;100184.23;1709092;83;20987;-83
2021/11/09 08:25:20;;;;;;;4.80;2.00;;;;;;;6.62;81.83;100192.41;1686747;83;21056;-81
2021/11/09 08:27:47;;;;;;;5.95;2.02;;;;;;;6.62;82.29;100182.06;1695419;82;21050;-83
2021/11/09 08:30:14;;;;;;;4.53;1.92;;;;;;;6.71;82.47;100179.57;1686811;83;21516;-81
2021/11/09 08:32:42;;;;;;;3.95;2.22;;;;;;;6.79;82.28;100196.00;1683050;83;21003;-82
2021/11/09 08:35:12;;;;;;;5.72;2.02;;;;;;;6.77;82.10;100222.26;1697743;82;21099;-83
2021/11/09 08:37:39;;;;;;;5.65;1.95;;;;;;;6.72;81.80;100225.22;1709173;82;21055;-80
2021/11/09 08:40:15;;;;;;;8.45;2.83;;;;;;;6.73;82.15;100226.97;1679442;83;21013;-81
2021/11/09 08:42:46;;;;;;;5.40;2.30;;;;;;;6.75;81.58;100248.09;1682333;83;21045;-82
2021/11/09 08:47:46;;;;;;;7.15;1.90;;;;;;;6.75;81.68;100280.39;1674545;84;21095;-82
2021/11/09 08:50:12;;;;;;;5.03;2.08;;;;;;;6.74;81.10;100250.25;1686112;84;21039;-82
2021/11/09 08:52:38;;;;;;;5.00;2.05;;;;;;;6.76;81.12;100233.44;1691683;83;21020;-87
2021/11/09 09:06:07;;;;;;;1.95;1.30;;;;;;;7.03;81.42;100260.39;1678554;84;22251;-90
2021/11/09 09:08:35;;;;;;;2.52;1.30;;;;;;;7.12;81.07;100244.92;1729109;81;21081;-90
2021/11/09 09:11:02;;;;;;;3.67;2.55;;;;;;;7.18;80.52;100255.31;1635692;80;21111;-87
2021/11/09 09:13:29;;;;;;;2.08;1.40;;;;;;;7.20;80.27;100258.77;1657877;81;21110;-91
2021/11/09 09:15:56;;;;;;;2.50;1.60;;;;;;;7.16;78.77;100250.15;1688198;79;21680;-94
2021/11/09 09:18:23;;;;;;;1.75;1.00;;;;;;;7.15;78.48;100243.66;1714556;79;21080;-89
2021/11/09 09:20:59;;;;;;;2.77;1.75;;;;;;;7.13;79.39;100244.08;1717544;82;21043;-92
2021/11/09 09:23:26;;;;;;;3.40;1.85;;;;;;;7.17;79.75;100243.25;1711041;80;21013;-84
2021/11/09 09:53:23;;;;;;;4.95;2.20;;;;;;;7.61;79.39;100272.86;1718579;83;20999;-85
2021/11/09 09:55:40;;;;;;;4.33;2.15;;;;;;;7.69;79.59;100281.09;1716421;83;21054;-85
2021/11/09 09:58:11;;;;;;;4.15;2.22;;;;;;;7.79;79.38;100290.21;1719107;83;21055;-85
2021/11/09 10:00:41;;;;;;;5.25;2.27;;;;;;;7.83;79.21;100293.25;1716416;83;21035;-85
2021/11/09 10:03:09;;;;;;;6.67;2.22;;;;;;;7.82;77.49;100288.51;1717249;84;21048;-84
2021/11/09 10:05:41;;;;;;;3.40;1.95;;;;;;;7.84;77.82;100286.80;1672961;85;21039;-85
2021/11/09 10:08:18;;;;;;;7.33;2.58;;;;;;;7.89;77.28;100285.51;1718251;82;21003;-83
2021/11/09 10:10:48;;;;;;;5.42;2.20;;;;;;;7.86;76.76;100280.30;1720404;82;20995;-85
2021/11/09 10:13:23;;;;;;;7.17;3.00;;;;;;;7.83;75.73;100281.59;1716442;83;21023;-85
2021/11/09 10:15:56;;;;;;;4.95;2.77;;;;;;;7.85;76.41;100285.06;1687697;85;21050;-85
2021/11/09 10:18:24;;;;;;;4.10;2.40;;;;;;;7.85;76.44;100293.69;1726691;82;20991;-84
2021/11/09 10:20:58;;;;;;;3.40;1.85;;;;;;;7.95;77.57;100293.30;1716672;82;21012;-83
2021/11/09 10:23:29;;;;;;;4.78;1.72;;;;;;;7.97;75.71;100294.17;1712862;82;21030;-82
2021/11/09 10:26:01;;;;;;;7.28;2.30;;;;;;;8.04;76.44;100297.24;1716950;82;21011;-85
2021/11/09 10:28:28;;;;;;;8.43;2.55;;;;;;;8.12;76.39;100301.16;1707964;82;21380;-84
2021/11/09 10:30:59;;;;;;;4.75;2.85;;;;;;;8.19;75.92;100304.64;1724307;81;21032;-83
2021/11/09 10:33:34;;;;;;;3.42;2.02;;;;;;;8.34;75.75;100308.15;1729919;82;20994;-83
2021/11/09 10:35:58;;;;;;;2.83;1.60;;;;;;;8.40;75.57;100303.86;1725957;82;20979;-82
2021/11/09 10:38:32;;;;;;;3.15;1.80;;;;;;;8.48;73.92;100312.11;1687088;84;21000;-82
2021/11/09 10:41:03;;;;;;;2.90;1.60;;;;;;;8.53;73.64;100309.12;1685919;80;27831;-84
2021/11/09 10:43:31;;;;;;;3.35;1.50;;;;;;;8.69;73.30;100309.13;1700744;81;21035;-82
2021/11/09 10:45:59;;;;;;;12.18;1.75;;;;;;;8.74;72.16;100312.17;1727951;79;20958;-81
2021/11/09 10:48:28;;;;;;;3.72;1.32;;;;;;;8.82;70.73;100323.00;1727767;82;20994;-84
2021/11/09 10:50:58;;;;;;;4.78;1.67;;;;;;;8.87;71.26;100322.55;1732954;82;21277;-82
2021/11/09 10:53:35;;;;;;;6.92;1.70;;;;;;;8.98;72.01;100321.30;1727789;82;20967;-83
2021/11/09 10:56:44;;;;;;;2.45;1.37;;;;;;;9.03;71.64;100320.44;1706817;82;20931;-83
2021/11/09 10:59:17;;;;;;;5.00;1.67;;;;;;;9.02;69.07;100323.02;1711589;82;21010;-81
2021/11/09 11:04:39;;;;;;;2.33;1.37;;;;;;;9.13;70.24;100323.88;1729123;81;20991;-85
2021/11/09 11:07:10;;;;;;;4.08;1.32;;;;;;;9.23;70.34;100325.64;1732754;82;20996;-82
2021/11/09 11:09:42;;;;;;;2.47;1.40;;;;;;;9.38;70.36;100334.27;1732005;82;21024;-83
2021/11/09 11:12:14;;;;;;;1.92;1.30;;;;;;;9.54;70.80;100325.60;1740690;82;20916;-81
2021/11/09 11:14:45;;;;;;;5.33;1.85;;;;;;;9.73;68.73;100326.02;1720090;82;20963;-81
2021/11/09 11:17:17;;;;;;;6.92;2.10;;;;;;;9.86;69.67;100332.47;1727739;82;21466;-80
2021/11/09 11:19:48;;;;;;;1.97;1.47;;;;;;;9.82;69.09;100332.05;1727173;82;21015;-82
2021/11/09 11:22:19;;;;;;;3.22;1.55;;;;;;;9.86;68.53;100342.86;1725616;82;20932;-83
2021/11/09 11:24:49;;;;;;;2.85;1.60;;;;;;;9.76;69.58;100349.36;1734117;82;21002;-84
2021/11/09 11:27:17;;;;;;;1.82;1.25;;;;;;;9.61;68.75;100364.09;1721404;82;20932;-82
2021/11/09 11:29:45;;;;;;;3.55;1.27;;;;;;;9.39;68.92;100362.84;1719701;83;21115;-80
2021/11/09 11:32:16;;;;;;;2.05;1.32;;;;;;;9.28;68.63;100371.04;1662613;85;21061;-81
2021/11/09 11:34:43;;;;;;;2.58;1.30;;;;;;;9.12;69.55;100370.16;1687495;84;20952;-84
2021/11/09 11:37:12;;;;;;;2.85;1.42;;;;;;;9.12;69.87;100381.39;1693148;84;21558;-82
2021/11/09 11:39:41;;;;;;;4.92;1.40;;;;;;;9.05;71.07;100386.16;1710459;83;21007;-83
2021/11/09 11:42:13;;;;;;;3.25;1.62;;;;;;;9.00;71.23;100383.11;1716605;83;21027;-82
2021/11/09 11:44:43;;;;;;;2.87;1.57;;;;;;;9.00;71.59;100387.01;1717128;83;21007;-82
2021/11/09 11:47:21;;;;;;;3.17;1.42;;;;;;;9.01;70.94;100388.28;1703820;84;20998;-82
2021/11/09 11:49:59;;;;;;;3.17;1.40;;;;;;;9.00;70.42;100398.23;1714463;84;20988;-84
2021/11/09 11:52:48;;;;;;;3.85;1.67;;;;;;;8.91;70.20;100399.09;1697804;84;21049;-82
2021/11/09 11:55:27;;;;;;;3.75;1.60;;;;;;;8.93;70.75;100401.27;1714805;84;21023;-83
2021/11/09 11:58:05;;;;;;;2.65;1.20;;;;;;;8.78;70.92;100399.91;1705755;84;21115;-81
2021/11/09 12:00:59;;;;;;;6.58;1.60;;;;;;;8.73;71.17;100396.02;1713448;83;21015;-83
2021/11/09 12:03:28;;;;;;;2.10;1.27;;;;;;;8.68;71.76;100409.82;1709727;84;20992;-81
2021/11/09 12:05:58;;;;;;;4.05;1.37;;;;;;;8.58;71.78;100414.54;1701666;83;21039;-82
2021/11/09 12:08:47;;;;;;;3.08;1.55;;;;;;;8.58;71.91;100419.72;1717473;83;21039;-82
2021/11/09 12:11:35;;;;;;;2.95;1.65;;;;;;;8.55;72.21;100419.26;1701512;83;20984;-81
2021/11/09 12:14:03;;;;;;;4.25;2.00;;;;;;;8.53;72.39;100421.87;1704995;83;21067;-81
2021/11/09 12:16:52;;;;;;;6.55;2.15;;;;;;;8.49;72.50;100434.34;1708193;83;21087;-79
2021/11/09 12:19:41;;;;;;;5.05;1.92;;;;;;;8.54;72.83;100435.69;1709332;83;21023;-84
2021/11/09 12:22:26;;;;;;;4.70;1.82;;;;;;;8.58;73.06;100438.73;1700545;83;20975;-80
2021/11/09 12:24:59;;;;;;;5.20;1.98;;;;;;;8.47;72.72;100446.87;1706399;83;21081;-80
2021/11/09 12:27:54;;;;;;;3.65;1.72;;;;;;;8.49;72.88;100451.20;1718216;83;20983;-82
2021/11/09 12:30:36;;;;;;;;;;;;;;;8.45;73.50;100452.48;1683463;83;21067;-79
2021/11/09 12:33:11;;;;;;;6.67;1.77;;;;;;;8.45;73.66;100458.52;1716624;83;20127;-80
2021/11/09 12:35:35;;;;;;;2.40;1.40;;;;;;;8.45;74.18;100455.06;1713746;83;21558;-79
2021/11/09 12:38:13;;;;;;;4.05;2.00;;;;;;;8.49;73.79;100459.41;1696392;83;21020;-80
2021/11/09 12:40:55;;;;;;;4.35;2.00;;;;;;;8.47;74.02;100466.31;1712021;83;20981;-79
2021/11/09 12:43:35;;;;;;;3.12;1.60;;;;;;;8.48;74.14;100470.22;1704122;84;21056;-79
2021/11/09 12:46:22;;;;;;;3.95;2.08;;;;;;;8.48;74.08;100464.17;1713419;83;21062;-80
2021/11/09 12:48:50;;;;;;;4.35;1.90;;;;;;;8.46;74.33;100464.16;1714561;83;20996;-81
2021/11/09 12:51:28;;;;;;;4.12;1.70;;;;;;;8.48;74.24;100469.36;1713199;83;21031;-80
2021/11/09 12:53:59;;;;;;;6.95;1.92;;;;;;;8.43;74.17;100468.45;1712362;83;21020;-79
2021/11/09 12:56:35;;;;;;;6.97;2.20;;;;;;;8.43;75.25;100470.60;1716060;83;21000;-80
2021/11/09 12:59:28;;;;;;;3.22;1.72;;;;;;;8.44;74.94;100473.65;1719766;83;20988;-82
2021/11/09 13:07:24;;;;;;;5.12;2.10;;;;;;;8.43;75.15;100490.05;1713550;83;21057;-81
2021/11/09 13:09:59;;;;;;;8.30;2.70;;;;;;;8.43;75.14;100491.34;1709976;83;21030;-84
2021/11/09 13:12:32;;;;;;;7.58;2.52;;;;;;;8.46;74.91;100490.08;1714041;83;21061;-83
2021/11/09 13:15:09;;;;;;;4.67;2.27;;;;;;;8.45;75.03;100496.09;1710458;83;21033;-80
2021/11/09 13:17:52;;;;;;;4.58;2.20;;;;;;;8.44;74.98;100494.82;1715852;83;21579;-80
2021/11/09 13:23:08;;;;;;;12.05;2.25;;;;;;;8.58;75.10;100501.37;1716129;83;21004;-81
2021/11/09 13:25:49;;;;;;;7.15;2.98;;;;;;;8.64;75.45;100502.27;1713358;83;21016;-79
2021/11/09 13:28:34;;;;;;;9.23;2.37;;;;;;;8.73;75.56;100504.03;1702333;83;20977;-79
2021/11/09 13:31:06;;;;;;;8.93;2.47;;;;;;;8.79;74.90;100500.16;1704388;83;21036;-80
2021/11/09 13:33:32;;;;;;;4.10;2.20;;;;;;;8.78;73.61;100506.23;1688645;84;21046;-80
2021/11/09 13:35:59;;;;;;;4.35;2.00;;;;;;;8.85;73.70;100515.75;1712025;83;21152;-81
2021/11/09 13:38:29;;;;;;;7.10;2.47;;;;;;;8.89;73.60;100516.23;1711226;82;21070;-80
2021/11/09 13:41:29;;;;;;;5.72;2.10;;;;;;;8.87;73.81;100517.06;1713812;82;21553;-81
2021/11/09 13:43:56;;;;;;;6.55;2.42;;;;;;;8.94;73.65;100518.84;1719998;82;21027;-81
2021/11/09 13:46:30;;;;;;;4.83;2.30;;;;;;;9.02;73.33;100528.81;1716988;82;21022;-85
2021/11/09 13:49:05;;;;;;;6.10;2.08;;;;;;;9.07;73.03;100528.41;1714232;82;21516;-83
2021/11/09 13:51:39;;;;;;;4.05;2.00;;;;;;;9.12;72.83;100530.58;1712329;82;21071;-81
2021/11/09 13:54:18;;;;;;;5.00;2.05;;;;;;;9.14;72.29;100530.59;1713346;83;20998;-83
2021/11/09 13:56:47;;;;;;;4.75;1.77;;;;;;;9.18;72.64;100533.62;1719662;83;21004;-83
2021/11/09 13:59:21;;;;;;;3.95;1.72;;;;;;;9.18;72.33;100541.41;1716767;83;21110;-82